Time,TemperatureF,DewpointF,PressureIn,WindDirection,WindDirectionDegrees,WindSpeedMPH,WindSpeedGustMPH,Humidity,HourlyPrecipIn,Conditions,Clouds,dailyrainin,SoftwareType,DateUTC
2013-06-21 00:01:00,64.2,53.8,30.25,NNE,14,0.0,0.0,69,0.00,,,0.00,Wunderground v.1.12,2013-06-21 04:01:00,
2013-06-21 00:04:00,64.2,54.2,30.25,NNE,14,0.0,0.0,70,0.00,,,0.00,Wunderground v.1.12,2013-06-21 04:04:00,
2013-06-21 00:05:00,64.2,54.6,30.25,NNE,14,0.0,0.0,71,0.00,,,0.00,Wunderground v.1.12,2013-06-21 04:05:00,
2013-06-21 00:06:00,64.0,54.4,30.25,NNE,14,0.0,0.0,71,0.00,,,0.00,Wunderground v.1.12,2013-06-21 04:06:00,
2013-06-21 00:09:00,63.9,53.9,30.25,NNE,14,0.0,0.0,70,0.00,,,0.00,Wunderground v.1.12,2013-06-21 04:09:00,
2013-06-21 00:14:00,63.7,53.3,30.25,ENE,64,0.0,0.0,69,0.00,,,0.00,Wunderground v.1.12,2013-06-21 04:14:00,
2013-06-21 00:19:00,63.5,52.7,30.25,NNW,336,0.0,0.0,68,0.00,,,0.00,Wunderground v.1.12,2013-06-21 04:19:00,
2013-06-21 00:25:00,63.4,52.7,30.25,NW,317,0.0,0.0,68,0.00,,,0.00,Wunderground v.1.12,2013-06-21 04:25:00,
2013-06-21 00:30:00,63.2,52.9,30.26,NW,317,0.0,0.0,69,0.00,,,0.00,Wunderground v.1.12,2013-06-21 04:30:00,
2013-06-21 00:35:00,63.1,52.8,30.26,NW,317,0.0,0.0,69,0.00,,,0.00,Wunderground v.1.12,2013-06-21 04:35:00,
2013-06-21 00:40:00,62.9,52.6,30.26,NW,317,0.0,0.0,69,0.00,,,0.00,Wunderground v.1.12,2013-06-21 04:40:00,
2013-06-21 00:46:00,62.6,52.3,30.26,NW,317,0.0,0.0,69,0.00,,,0.00,Wunderground v.1.12,2013-06-21 04:46:00,
2013-06-21 00:52:00,62.4,52.5,30.26,NW,317,0.0,0.0,70,0.00,,,0.00,Wunderground v.1.12,2013-06-21 04:52:00,
2013-06-21 00:57:00,62.1,52.2,30.26,NW,317,0.0,0.0,70,0.00,,,0.00,Wunderground v.1.12,2013-06-21 04:57:00,
2013-06-21 01:04:00,62.0,52.5,30.26,NW,317,0.0,0.0,71,0.00,,,0.00,Wunderground v.1.12,2013-06-21 05:04:00,
2013-06-21 01:09:00,61.6,50.9,30.26,NW,317,0.0,0.0,68,0.00,,,0.00,Wunderground v.1.12,2013-06-21 05:09:00,
2013-06-21 01:14:00,61.6,50.5,30.26,NW,317,0.0,0.0,67,0.00,,,0.00,Wunderground v.1.12,2013-06-21 05:14:00,
2013-06-21 01:19:00,61.5,51.2,30.26,NW,317,0.0,0.0,69,0.00,,,0.00,Wunderground v.1.12,2013-06-21 05:19:00,
2013-06-21 01:25:00,61.3,50.6,30.26,NW,317,0.0,0.0,68,0.00,,,0.00,Wunderground v.1.12,2013-06-21 05:25:00,
2013-06-21 01:31:00,61.2,50.9,30.26,NW,317,0.0,0.0,69,0.00,,,0.00,Wunderground v.1.12,2013-06-21 05:31:00,
2013-06-21 01:37:00,61.0,50.8,30.26,NW,318,0.0,0.0,69,0.00,,,0.00,Wunderground v.1.12,2013-06-21 05:37:00,
2013-06-21 01:42:00,61.0,50.8,30.26,NW,310,0.0,0.0,69,0.00,,,0.00,Wunderground v.1.12,2013-06-21 05:42:00,
2013-06-21 01:49:00,61.0,51.5,30.25,NW,310,0.0,0.0,71,0.00,,,0.00,Wunderground v.1.12,2013-06-21 05:49:00,
2013-06-21 01:54:00,61.0,51.9,30.25,NW,310,0.0,0.0,72,0.00,,,0.00,Wunderground v.1.12,2013-06-21 05:54:00,
2013-06-21 01:59:00,60.9,51.8,30.24,NNW,348,0.0,0.0,72,0.00,,,0.00,Wunderground v.1.12,2013-06-21 05:59:00,
2013-06-21 02:04:00,60.5,51.4,30.24,NNW,348,0.0,1.0,72,0.00,,,0.00,Wunderground v.1.12,2013-06-21 06:04:00,
2013-06-21 02:09:00,60.4,51.3,30.24,NNW,348,0.0,0.0,72,0.00,,,0.00,Wunderground v.1.12,2013-06-21 06:09:00,
2013-06-21 02:14:00,60.2,51.5,30.25,NNE,16,0.0,0.0,73,0.00,,,0.00,Wunderground v.1.12,2013-06-21 06:14:00,
2013-06-21 02:19:00,60.2,51.5,30.25,East,92,0.0,0.0,73,0.00,,,0.00,Wunderground v.1.12,2013-06-21 06:19:00,
2013-06-21 02:24:00,60.2,51.5,30.25,East,92,0.0,0.0,73,0.00,,,0.00,Wunderground v.1.12,2013-06-21 06:24:00,
2013-06-21 02:29:00,60.2,52.2,30.25,East,92,0.0,0.0,75,0.00,,,0.00,Wunderground v.1.12,2013-06-21 06:29:00,
2013-06-21 02:34:00,60.2,51.5,30.25,NNW,348,0.0,2.0,73,0.00,,,0.00,Wunderground v.1.12,2013-06-21 06:34:00,
2013-06-21 02:39:00,60.2,51.5,30.25,NNE,32,0.0,3.0,73,0.00,,,0.00,Wunderground v.1.12,2013-06-21 06:39:00,
2013-06-21 02:44:00,60.2,51.9,30.25,NNE,32,0.0,0.0,74,0.00,,,0.00,Wunderground v.1.12,2013-06-21 06:44:00,
2013-06-21 02:50:00,60.2,51.5,30.25,NNE,13,3.0,3.0,73,0.00,,,0.00,Wunderground v.1.12,2013-06-21 06:50:00,
2013-06-21 02:55:00,60.2,51.1,30.25,NE,53,0.0,1.0,72,0.00,,,0.00,Wunderground v.1.12,2013-06-21 06:55:00,
2013-06-21 03:00:00,60.2,50.8,30.25,North,360,0.0,1.0,71,0.00,,,0.00,Wunderground v.1.12,2013-06-21 07:00:00,
2013-06-21 03:05:00,60.2,51.1,30.25,North,350,0.0,1.0,72,0.00,,,0.00,Wunderground v.1.12,2013-06-21 07:05:00,
2013-06-21 03:10:00,60.2,51.5,30.25,North,350,0.0,0.0,73,0.00,,,0.00,Wunderground v.1.12,2013-06-21 07:10:00,
2013-06-21 03:15:00,59.9,50.8,30.25,NNW,347,0.0,0.0,72,0.00,,,0.00,Wunderground v.1.12,2013-06-21 07:15:00,
2013-06-21 03:20:00,59.8,50.8,30.25,NNW,347,0.0,0.0,72,0.00,,,0.00,Wunderground v.1.12,2013-06-21 07:20:00,
2013-06-21 03:25:00,59.8,51.1,30.25,NNW,347,0.0,0.0,73,0.00,,,0.00,Wunderground v.1.12,2013-06-21 07:25:00,
2013-06-21 03:31:00,59.6,50.9,30.25,North,355,0.0,0.0,73,0.00,,,0.00,Wunderground v.1.12,2013-06-21 07:31:00,
2013-06-21 03:36:00,59.6,50.9,30.25,North,355,0.0,0.0,73,0.00,,,0.00,Wunderground v.1.12,2013-06-21 07:36:00,
2013-06-21 03:41:00,59.5,50.8,30.25,North,351,0.0,0.0,73,0.00,,,0.00,Wunderground v.1.12,2013-06-21 07:41:00,
2013-06-21 03:46:00,59.5,50.8,30.25,NNW,339,0.0,0.0,73,0.00,,,0.00,Wunderground v.1.12,2013-06-21 07:46:00,
2013-06-21 03:51:00,59.3,50.6,30.25,NNE,13,0.0,0.0,73,0.00,,,0.00,Wunderground v.1.12,2013-06-21 07:51:00,
2013-06-21 03:56:00,59.3,50.6,30.25,NNE,13,0.0,0.0,73,0.00,,,0.00,Wunderground v.1.12,2013-06-21 07:56:00,
2013-06-21 04:01:00,59.3,50.6,30.25,NNE,13,0.0,0.0,73,0.00,,,0.00,Wunderground v.1.12,2013-06-21 08:01:00,
2013-06-21 04:06:00,59.2,50.5,30.25,NNE,13,0.0,0.0,73,0.00,,,0.00,Wunderground v.1.12,2013-06-21 08:06:00,
2013-06-21 04:11:00,59.2,50.5,30.25,NNE,13,0.0,0.0,73,0.00,,,0.00,Wunderground v.1.12,2013-06-21 08:11:00,
2013-06-21 04:16:00,59.0,50.7,30.25,NNE,13,0.0,0.0,74,0.00,,,0.00,Wunderground v.1.12,2013-06-21 08:16:00,
2013-06-21 04:21:00,59.0,51.1,30.25,NNE,13,0.0,0.0,75,0.00,,,0.00,Wunderground v.1.12,2013-06-21 08:21:00,
2013-06-21 04:26:00,59.0,51.4,30.25,NNE,13,0.0,0.0,76,0.00,,,0.00,Wunderground v.1.12,2013-06-21 08:26:00,
2013-06-21 04:31:00,58.9,51.0,30.25,NNE,13,0.0,0.0,75,0.00,,,0.00,Wunderground v.1.12,2013-06-21 08:31:00,
2013-06-21 04:36:00,58.9,51.0,30.25,NNE,13,0.0,0.0,75,0.00,,,0.00,Wunderground v.1.12,2013-06-21 08:36:00,
2013-06-21 04:41:00,58.9,50.6,30.25,NNE,24,0.0,0.0,74,0.00,,,0.00,Wunderground v.1.12,2013-06-21 08:41:00,
2013-06-21 04:46:00,58.9,50.3,30.25,NNE,24,0.0,0.0,73,0.00,,,0.00,Wunderground v.1.12,2013-06-21 08:46:00,
2013-06-21 04:51:00,59.0,50.7,30.25,NNE,24,0.0,0.0,74,0.00,,,0.00,Wunderground v.1.12,2013-06-21 08:51:00,
2013-06-21 04:56:00,58.9,51.0,30.25,NNE,24,0.0,0.0,75,0.00,,,0.00,Wunderground v.1.12,2013-06-21 08:56:00,
2013-06-21 05:01:00,58.7,50.8,30.25,NNE,24,0.0,0.0,75,0.00,,,0.00,Wunderground v.1.12,2013-06-21 09:01:00,
2013-06-21 05:07:00,58.4,50.9,30.25,NNE,24,0.0,0.0,76,0.00,,,0.00,Wunderground v.1.12,2013-06-21 09:07:00,
2013-06-21 05:12:00,58.3,50.0,30.25,NNE,25,0.0,0.0,74,0.00,,,0.00,Wunderground v.1.12,2013-06-21 09:12:00,
2013-06-21 05:17:00,58.3,50.4,30.25,NNE,25,0.0,0.0,75,0.00,,,0.00,Wunderground v.1.12,2013-06-21 09:17:00,
2013-06-21 05:22:00,58.1,50.2,30.25,NNE,25,0.0,0.0,75,0.00,,,0.00,Wunderground v.1.12,2013-06-21 09:22:00,
2013-06-21 05:27:00,58.0,50.8,30.25,NNE,25,0.0,0.0,77,0.00,,,0.00,Wunderground v.1.12,2013-06-21 09:27:00,
2013-06-21 05:32:00,57.8,50.6,30.26,NNE,28,0.0,0.0,77,0.00,,,0.00,Wunderground v.1.12,2013-06-21 09:32:00,
2013-06-21 05:37:00,57.8,51.0,30.26,NNE,32,0.0,0.0,78,0.00,,,0.00,Wunderground v.1.12,2013-06-21 09:37:00,
2013-06-21 05:42:00,57.6,50.8,30.26,NNE,32,0.0,0.0,78,0.00,,,0.00,Wunderground v.1.12,2013-06-21 09:42:00,
2013-06-21 05:47:00,57.6,51.1,30.26,NNE,32,0.0,0.0,79,0.00,,,0.00,Wunderground v.1.12,2013-06-21 09:47:00,
2013-06-21 05:52:00,57.6,51.1,30.26,NNE,32,0.0,0.0,79,0.00,,,0.00,Wunderground v.1.12,2013-06-21 09:52:00,
2013-06-21 05:57:00,57.5,50.7,30.26,NE,38,0.0,0.0,78,0.00,,,0.00,Wunderground v.1.12,2013-06-21 09:57:00,
2013-06-21 06:02:00,57.6,51.1,30.27,NE,38,0.0,0.0,79,0.00,,,0.00,Wunderground v.1.12,2013-06-21 10:02:00,
2013-06-21 06:07:00,57.6,51.1,30.27,NE,38,0.0,0.0,79,0.00,,,0.00,Wunderground v.1.12,2013-06-21 10:07:00,
2013-06-21 06:12:00,57.8,52.0,30.27,NE,38,0.0,0.0,81,0.00,,,0.00,Wunderground v.1.12,2013-06-21 10:12:00,
2013-06-21 06:17:00,57.6,51.8,30.27,NE,38,0.0,0.0,81,0.00,,,0.00,Wunderground v.1.12,2013-06-21 10:17:00,
2013-06-21 06:23:00,57.6,51.8,30.27,NE,38,0.0,0.0,81,0.00,,,0.00,Wunderground v.1.12,2013-06-21 10:23:00,
2013-06-21 06:28:00,57.8,52.0,30.27,NNE,30,0.0,0.0,81,0.00,,,0.00,Wunderground v.1.12,2013-06-21 10:28:00,
2013-06-21 06:33:00,57.8,52.0,30.27,NNE,30,0.0,0.0,81,0.00,,,0.00,Wunderground v.1.12,2013-06-21 10:33:00,
2013-06-21 06:39:00,57.8,52.0,30.27,NNE,30,0.0,0.0,81,0.00,,,0.00,Wunderground v.1.12,2013-06-21 10:39:00,
2013-06-21 06:44:00,58.0,52.2,30.27,NNE,30,0.0,0.0,81,0.00,,,0.00,Wunderground v.1.12,2013-06-21 10:44:00,
2013-06-21 06:49:00,58.3,52.5,30.27,North,5,0.0,0.0,81,0.00,,,0.00,Wunderground v.1.12,2013-06-21 10:49:00,
2013-06-21 06:54:00,58.7,52.9,30.27,North,5,0.0,0.0,81,0.00,,,0.00,Wunderground v.1.12,2013-06-21 10:54:00,
2013-06-21 06:59:00,58.9,52.7,30.27,North,355,0.0,0.0,80,0.00,,,0.00,Wunderground v.1.12,2013-06-21 10:59:00,
2013-06-21 07:04:00,59.2,53.0,30.27,North,355,0.0,0.0,80,0.00,,,0.00,Wunderground v.1.12,2013-06-21 11:04:00,
2013-06-21 07:09:00,59.5,53.3,30.27,WNW,285,0.0,0.0,80,0.00,,,0.00,Wunderground v.1.12,2013-06-21 11:09:00,
2013-06-21 07:14:00,59.5,53.3,30.27,WNW,292,0.0,0.0,80,0.00,,,0.00,Wunderground v.1.12,2013-06-21 11:14:00,
2013-06-21 07:19:00,59.6,53.1,30.27,WNW,290,0.0,5.0,79,0.00,,,0.00,Wunderground v.1.12,2013-06-21 11:19:00,
2013-06-21 07:24:00,59.8,53.3,30.27,NW,306,0.0,0.0,79,0.00,,,0.00,Wunderground v.1.12,2013-06-21 11:24:00,
2013-06-21 07:29:00,59.8,53.3,30.27,NW,306,0.0,0.0,79,0.00,,,0.00,Wunderground v.1.12,2013-06-21 11:29:00,
2013-06-21 07:35:00,60.1,53.6,30.27,NW,323,0.0,1.0,79,0.00,,,0.00,Wunderground v.1.12,2013-06-21 11:35:00,
2013-06-21 07:40:00,60.4,53.9,30.27,NW,323,0.0,0.0,79,0.00,,,0.00,Wunderground v.1.12,2013-06-21 11:40:00,
2013-06-21 07:45:00,60.7,54.1,30.27,NW,322,0.0,0.0,79,0.00,,,0.00,Wunderground v.1.12,2013-06-21 11:45:00,
2013-06-21 07:50:00,61.0,54.4,30.27,NW,322,0.0,0.0,79,0.00,,,0.00,Wunderground v.1.12,2013-06-21 11:50:00,
2013-06-21 07:55:00,61.5,55.3,30.27,NW,322,0.0,0.0,80,0.00,,,0.00,Wunderground v.1.12,2013-06-21 11:55:00,
2013-06-21 08:00:00,61.6,55.0,30.27,NW,324,0.0,0.0,79,0.00,,,0.00,Wunderground v.1.12,2013-06-21 12:00:00,
2013-06-21 08:05:00,61.8,54.5,30.27,NW,324,0.0,0.0,77,0.00,,,0.00,Wunderground v.1.12,2013-06-21 12:05:00,
2013-06-21 08:11:00,62.1,54.8,30.27,NNW,344,0.0,0.0,77,0.00,,,0.00,Wunderground v.1.12,2013-06-21 12:11:00,
2013-06-21 08:16:00,62.3,55.0,30.28,South,173,0.0,1.0,77,0.00,,,0.00,Wunderground v.1.12,2013-06-21 12:16:00,
2013-06-21 08:21:00,62.4,54.7,30.28,NNW,336,0.0,0.0,76,0.00,,,0.00,Wunderground v.1.12,2013-06-21 12:21:00,
2013-06-21 08:26:00,62.6,54.9,30.28,NW,313,0.0,0.0,76,0.00,,,0.00,Wunderground v.1.12,2013-06-21 12:26:00,
2013-06-21 08:31:00,62.7,55.0,30.28,NNW,337,0.0,0.0,76,0.00,,,0.00,Wunderground v.1.12,2013-06-21 12:31:00,
2013-06-21 08:36:00,62.9,55.2,30.28,NNW,337,0.0,0.0,76,0.00,,,0.00,Wunderground v.1.12,2013-06-21 12:36:00,
2013-06-21 08:41:00,63.1,55.4,30.28,NNW,337,0.0,0.0,76,0.00,,,0.00,Wunderground v.1.12,2013-06-21 12:41:00,
2013-06-21 08:46:00,63.2,54.8,30.28,NNW,338,0.0,0.0,74,0.00,,,0.00,Wunderground v.1.12,2013-06-21 12:46:00,
2013-06-21 08:51:00,63.4,53.8,30.28,NNW,331,0.0,4.0,71,0.00,,,0.00,Wunderground v.1.12,2013-06-21 12:51:00,
2013-06-21 08:56:00,63.9,53.5,30.28,NNE,32,0.0,0.0,69,0.00,,,0.00,Wunderground v.1.12,2013-06-21 12:56:00,
2013-06-21 09:01:00,64.3,54.7,30.29,North,355,0.0,0.0,71,0.00,,,0.00,Wunderground v.1.12,2013-06-21 13:01:00,
2013-06-21 09:06:00,64.5,55.3,30.29,North,355,0.0,0.0,72,0.00,,,0.00,Wunderground v.1.12,2013-06-21 13:06:00,
2013-06-21 09:11:00,64.7,55.5,30.29,North,355,0.0,0.0,72,0.00,,,0.00,Wunderground v.1.12,2013-06-21 13:11:00,
2013-06-21 09:16:00,64.8,54.4,30.28,NNE,26,0.0,0.0,69,0.00,,,0.00,Wunderground v.1.12,2013-06-21 13:16:00,
2013-06-21 09:21:00,65.2,54.4,30.28,NE,42,0.0,0.0,68,0.00,,,0.00,Wunderground v.1.12,2013-06-21 13:21:00,
2013-06-21 09:27:00,65.3,54.1,30.28,NE,42,0.0,0.0,67,0.00,,,0.00,Wunderground v.1.12,2013-06-21 13:27:00,
2013-06-21 09:32:00,65.6,53.9,30.27,NE,42,0.0,0.0,66,0.00,,,0.00,Wunderground v.1.12,2013-06-21 13:32:00,
2013-06-21 09:37:00,65.8,54.5,30.27,NE,42,0.0,0.0,67,0.00,,,0.00,Wunderground v.1.12,2013-06-21 13:37:00,
2013-06-21 09:42:00,66.1,54.4,30.27,East,81,0.0,0.0,66,0.00,,,0.00,Wunderground v.1.12,2013-06-21 13:42:00,
2013-06-21 09:47:00,66.4,55.1,30.27,East,81,0.0,0.0,67,0.00,,,0.00,Wunderground v.1.12,2013-06-21 13:47:00,
2013-06-21 09:52:00,66.9,54.7,30.27,NNE,22,0.0,0.0,65,0.00,,,0.00,Wunderground v.1.12,2013-06-21 13:52:00,
2013-06-21 09:57:00,67.3,54.3,30.27,ESE,109,1.0,3.0,63,0.00,,,0.00,Wunderground v.1.12,2013-06-21 13:57:00,
2013-06-21 10:02:00,67.6,54.1,30.27,NNE,20,0.0,2.0,62,0.00,,,0.00,Wunderground v.1.12,2013-06-21 14:02:00,
2013-06-21 10:07:00,68.1,55.0,30.27,NE,36,0.0,1.0,63,0.00,,,0.00,Wunderground v.1.12,2013-06-21 14:07:00,
2013-06-21 10:12:00,68.3,54.8,30.27,NW,316,0.0,1.0,62,0.00,,,0.00,Wunderground v.1.12,2013-06-21 14:12:00,
2013-06-21 10:17:00,68.6,55.9,30.27,NW,318,0.0,1.0,64,0.00,,,0.00,Wunderground v.1.12,2013-06-21 14:17:00,
2013-06-21 10:23:00,68.8,55.2,30.27,NNW,337,0.0,0.0,62,0.00,,,0.00,Wunderground v.1.12,2013-06-21 14:23:00,
2013-06-21 10:29:00,68.9,54.9,30.27,NNW,332,0.0,6.0,61,0.00,,,0.00,Wunderground v.1.12,2013-06-21 14:29:00,
2013-06-21 10:34:00,69.3,54.8,30.27,NNE,13,0.0,1.0,60,0.00,,,0.00,Wunderground v.1.12,2013-06-21 14:34:00,
2013-06-21 10:39:00,69.6,55.6,30.27,NNE,14,0.0,0.0,61,0.00,,,0.00,Wunderground v.1.12,2013-06-21 14:39:00,
2013-06-21 10:44:00,69.9,56.3,30.28,North,9,0.0,0.0,62,0.00,,,0.00,Wunderground v.1.12,2013-06-21 14:44:00,
2013-06-21 10:49:00,70.1,56.0,30.28,ENE,61,0.0,0.0,61,0.00,,,0.00,Wunderground v.1.12,2013-06-21 14:49:00,
2013-06-21 10:54:00,70.3,55.3,30.28,NNE,26,0.0,0.0,59,0.00,,,0.00,Wunderground v.1.12,2013-06-21 14:54:00,
2013-06-21 10:59:00,70.6,56.0,30.28,NNW,331,0.0,3.0,60,0.00,,,0.00,Wunderground v.1.12,2013-06-21 14:59:00,
2013-06-21 11:04:00,70.9,56.3,30.28,NE,34,0.0,0.0,60,0.00,,,0.00,Wunderground v.1.12,2013-06-21 15:04:00,
2013-06-21 11:09:00,71.8,58.1,30.28,ENE,57,0.0,0.0,62,0.00,,,0.00,Wunderground v.1.12,2013-06-21 15:09:00,
2013-06-21 11:14:00,72.1,57.4,30.28,South,175,0.0,0.0,60,0.00,,,0.00,Wunderground v.1.12,2013-06-21 15:14:00,
2013-06-21 11:19:00,72.8,56.2,30.28,NE,42,0.0,1.0,56,0.00,,,0.00,Wunderground v.1.12,2013-06-21 15:19:00,
2013-06-21 11:24:00,73.7,58.0,30.28,NE,42,0.0,1.0,58,0.00,,,0.00,Wunderground v.1.12,2013-06-21 15:24:00,
2013-06-21 11:30:00,74.0,56.8,30.28,North,360,0.0,1.0,55,0.00,,,0.00,Wunderground v.1.12,2013-06-21 15:30:00,
2013-06-21 11:35:00,74.6,58.4,30.28,SW,236,0.0,2.0,57,0.00,,,0.00,Wunderground v.1.12,2013-06-21 15:35:00,
2013-06-21 11:40:00,75.1,59.8,30.28,North,9,0.0,0.0,59,0.00,,,0.00,Wunderground v.1.12,2013-06-21 15:40:00,
2013-06-21 11:45:00,75.6,58.8,30.28,NE,44,0.0,0.0,56,0.00,,,0.00,Wunderground v.1.12,2013-06-21 15:45:00,
2013-06-21 11:50:00,76.1,58.2,30.28,NNW,340,0.0,0.0,54,0.00,,,0.00,Wunderground v.1.12,2013-06-21 15:50:00,
2013-06-21 11:56:00,76.3,57.4,30.28,NE,42,0.0,0.0,52,0.00,,,0.00,Wunderground v.1.12,2013-06-21 15:56:00,
2013-06-21 12:01:00,76.5,58.6,30.28,East,80,0.0,0.0,54,0.00,,,0.00,Wunderground v.1.12,2013-06-21 16:01:00,
2013-06-21 12:06:00,76.7,58.8,30.28,NNW,329,0.0,2.0,54,0.00,,,0.00,Wunderground v.1.12,2013-06-21 16:06:00,
2013-06-21 12:11:00,76.8,58.9,30.28,NNW,344,0.0,0.0,54,0.00,,,0.00,Wunderground v.1.12,2013-06-21 16:11:00,
2013-06-21 12:16:00,76.8,57.8,30.28,NNE,17,0.0,0.0,52,0.00,,,0.00,Wunderground v.1.12,2013-06-21 16:16:00,
2013-06-21 12:21:00,77.0,59.1,30.28,NNE,13,0.0,0.0,54,0.00,,,0.00,Wunderground v.1.12,2013-06-21 16:21:00,
2013-06-21 12:26:00,77.2,57.7,30.28,North,5,0.0,0.0,51,0.00,,,0.00,Wunderground v.1.12,2013-06-21 16:26:00,
2013-06-21 12:31:00,77.4,58.4,30.29,North,9,0.0,0.0,52,0.00,,,0.00,Wunderground v.1.12,2013-06-21 16:31:00,
2013-06-21 12:36:00,77.4,61.0,30.29,NNE,20,0.0,0.0,57,0.00,,,0.00,Wunderground v.1.12,2013-06-21 16:36:00,
2013-06-21 12:41:00,77.4,58.9,30.29,NNW,345,0.0,0.0,53,0.00,,,0.00,Wunderground v.1.12,2013-06-21 16:41:00,
2013-06-21 12:47:00,77.4,61.5,30.28,NNE,19,0.0,2.0,58,0.00,,,0.00,Wunderground v.1.12,2013-06-21 16:47:00,
2013-06-21 12:52:00,77.4,58.4,30.28,ENE,65,0.0,0.0,52,0.00,,,0.00,Wunderground v.1.12,2013-06-21 16:52:00,
2013-06-21 12:57:00,77.7,60.8,30.28,NE,38,0.0,1.0,56,0.00,,,0.00,Wunderground v.1.12,2013-06-21 16:57:00,
2013-06-21 13:02:00,77.7,58.7,30.27,NNE,13,0.0,3.0,52,0.00,,,0.00,Wunderground v.1.12,2013-06-21 17:02:00,
2013-06-21 13:07:00,78.1,61.6,30.27,NNE,25,0.0,1.0,57,0.00,,,0.00,Wunderground v.1.12,2013-06-21 17:07:00,
2013-06-21 13:12:00,77.9,58.3,30.27,ENE,66,0.0,4.0,51,0.00,,,0.00,Wunderground v.1.12,2013-06-21 17:12:00,
2013-06-21 13:17:00,77.4,57.3,30.27,East,87,1.0,2.0,50,0.00,,,0.00,Wunderground v.1.12,2013-06-21 17:17:00,
2013-06-21 13:22:00,77.7,61.7,30.27,SE,143,0.0,1.0,58,0.00,,,0.00,Wunderground v.1.12,2013-06-21 17:22:00,
2013-06-21 13:28:00,78.6,58.4,30.27,North,11,0.0,9.0,50,0.00,,,0.00,Wunderground v.1.12,2013-06-21 17:28:00,
2013-06-21 13:38:00,78.8,59.1,30.26,SSW,207,0.0,0.0,51,0.00,,,0.00,Wunderground v.1.12,2013-06-21 17:38:00,
2013-06-21 13:44:00,79.4,61.3,30.26,ENE,70,2.0,2.0,54,0.00,,,0.00,Wunderground v.1.12,2013-06-21 17:44:00,
2013-06-21 13:46:00,79.2,60.6,30.26,ENE,70,0.0,0.0,53,0.00,,,0.00,Wunderground v.1.12,2013-06-21 17:46:00,
2013-06-21 13:48:00,79.2,58.4,30.26,NNW,344,0.0,2.0,49,0.00,,,0.00,Wunderground v.1.12,2013-06-21 17:48:00,
2013-06-21 13:49:00,79.2,59.0,30.26,NNW,344,0.0,2.0,50,0.00,,,0.00,Wunderground v.1.12,2013-06-21 17:49:00,
2013-06-21 13:50:00,79.4,61.3,30.26,NNW,344,0.0,0.0,54,0.00,,,0.00,Wunderground v.1.12,2013-06-21 17:50:00,
2013-06-21 13:55:00,79.6,62.0,30.26,North,5,1.0,1.0,55,0.00,,,0.00,Wunderground v.1.12,2013-06-21 17:55:00,
2013-06-21 14:01:00,79.4,60.2,30.25,North,5,0.0,0.0,52,0.00,,,0.00,Wunderground v.1.12,2013-06-21 18:01:00,
2013-06-21 14:06:00,79.0,58.2,30.25,NNE,17,0.0,1.0,49,0.00,,,0.00,Wunderground v.1.12,2013-06-21 18:06:00,
2013-06-21 14:12:00,79.4,59.1,30.25,NNW,333,1.0,1.0,50,0.00,,,0.00,Wunderground v.1.12,2013-06-21 18:12:00,
2013-06-21 14:18:00,79.8,57.8,30.26,NE,46,0.0,1.0,47,0.00,,,0.00,Wunderground v.1.12,2013-06-21 18:18:00,
2013-06-21 14:23:00,79.8,58.4,30.26,NNW,344,0.0,1.0,48,0.00,,,0.00,Wunderground v.1.12,2013-06-21 18:23:00,
2013-06-21 14:26:00,79.4,57.4,30.26,NE,53,2.0,2.0,47,0.00,,,0.00,Wunderground v.1.12,2013-06-21 18:26:00,
2013-06-21 14:27:00,79.4,57.4,30.26,NNE,32,0.0,2.0,47,0.00,,,0.00,Wunderground v.1.12,2013-06-21 18:27:00,
2013-06-21 14:32:00,79.2,58.4,30.26,NE,54,0.0,0.0,49,0.00,,,0.00,Wunderground v.1.12,2013-06-21 18:32:00,
2013-06-21 14:37:00,79.6,61.0,30.26,NE,35,0.0,0.0,53,0.00,,,0.00,Wunderground v.1.12,2013-06-21 18:37:00,
2013-06-21 14:42:00,79.4,56.8,30.26,North,5,0.0,0.0,46,0.00,,,0.00,Wunderground v.1.12,2013-06-21 18:42:00,
2013-06-21 14:45:00,79.2,55.4,30.27,North,11,0.0,0.0,44,0.00,,,0.00,Wunderground v.1.12,2013-06-21 18:45:00,
2013-06-21 14:47:00,79.4,57.4,30.27,NNW,333,1.0,1.0,47,0.00,,,0.00,Wunderground v.1.12,2013-06-21 18:47:00,
2013-06-21 14:52:00,79.4,58.6,30.27,North,11,0.0,2.0,49,0.00,,,0.00,Wunderground v.1.12,2013-06-21 18:52:00,
2013-06-21 14:58:00,79.2,57.2,30.26,East,84,0.0,1.0,47,0.00,,,0.00,Wunderground v.1.12,2013-06-21 18:58:00,
2013-06-21 15:03:00,79.6,57.0,30.26,East,88,0.0,0.0,46,0.00,,,0.00,Wunderground v.1.12,2013-06-21 19:03:00,
2013-06-21 15:08:00,79.9,60.2,30.26,ENE,67,0.0,1.0,51,0.00,,,0.00,Wunderground v.1.12,2013-06-21 19:08:00,
2013-06-21 15:13:00,79.9,60.2,30.25,WSW,247,0.0,0.0,51,0.00,,,0.00,Wunderground v.1.12,2013-06-21 19:13:00,
2013-06-21 15:18:00,80.7,60.3,30.25,North,5,0.0,1.0,50,0.00,,,0.00,Wunderground v.1.12,2013-06-21 19:18:00,
2013-06-21 15:20:00,80.7,58.6,30.25,North,355,1.0,1.0,47,0.00,,,0.00,Wunderground v.1.12,2013-06-21 19:20:00,
2013-06-21 15:26:00,80.5,57.8,30.25,NNE,26,0.0,0.0,46,0.00,,,0.00,Wunderground v.1.12,2013-06-21 19:26:00,
2013-06-21 15:31:00,80.9,60.5,30.24,North,5,2.0,4.0,50,0.00,,,0.00,Wunderground v.1.12,2013-06-21 19:31:00,
2013-06-21 15:36:00,80.7,60.3,30.24,NNW,345,0.0,0.0,50,0.00,,,0.00,Wunderground v.1.12,2013-06-21 19:36:00,
2013-06-21 15:41:00,80.7,60.3,30.24,WNW,289,0.0,0.0,50,0.00,,,0.00,Wunderground v.1.12,2013-06-21 19:41:00,
2013-06-21 15:42:00,80.7,59.8,30.24,WNW,294,0.0,0.0,49,0.00,,,0.00,Wunderground v.1.12,2013-06-21 19:42:00,
2013-06-21 15:47:00,80.7,60.9,30.24,North,355,3.0,3.0,51,0.00,,,0.00,Wunderground v.1.12,2013-06-21 19:47:00,
2013-06-21 15:53:00,80.1,59.8,30.24,NW,311,0.0,5.0,50,0.00,,,0.00,Wunderground v.1.12,2013-06-21 19:53:00,
2013-06-21 15:58:00,80.1,60.9,30.24,NNW,343,0.0,3.0,52,0.00,,,0.00,Wunderground v.1.12,2013-06-21 19:58:00,
2013-06-21 16:03:00,79.9,58.5,30.24,NNE,17,0.0,2.0,48,0.00,,,0.00,Wunderground v.1.12,2013-06-21 20:03:00,
2013-06-21 16:04:00,79.8,58.9,30.24,ENE,63,0.0,2.0,49,0.00,,,0.00,Wunderground v.1.12,2013-06-21 20:04:00,
2013-06-21 16:08:00,79.6,58.2,30.24,West,271,1.0,1.0,48,0.00,,,0.00,Wunderground v.1.12,2013-06-21 20:08:00,
2013-06-21 16:11:00,79.6,59.3,30.24,West,272,0.0,0.0,50,0.00,,,0.00,Wunderground v.1.12,2013-06-21 20:11:00,
2013-06-21 16:14:00,79.6,57.6,30.24,West,269,0.0,0.0,47,0.00,,,0.00,Wunderground v.1.12,2013-06-21 20:14:00,
2013-06-21 16:19:00,78.6,56.7,30.24,East,94,0.0,5.0,47,0.00,,,0.00,Wunderground v.1.12,2013-06-21 20:19:00,
2013-06-21 16:24:00,78.3,58.7,30.24,NNW,344,0.0,2.0,51,0.00,,,0.00,Wunderground v.1.12,2013-06-21 20:24:00,
2013-06-21 16:29:00,78.1,57.4,30.24,East,90,0.0,2.0,49,0.00,,,0.00,Wunderground v.1.12,2013-06-21 20:29:00,
2013-06-21 16:34:00,77.9,56.6,30.24,NNE,19,0.0,1.0,48,0.00,,,0.00,Wunderground v.1.12,2013-06-21 20:34:00,
2013-06-21 16:39:00,77.9,58.9,30.24,NNE,30,0.0,0.0,52,0.00,,,0.00,Wunderground v.1.12,2013-06-21 20:39:00,
2013-06-21 16:45:00,77.9,58.9,30.24,WNW,303,0.0,0.0,52,0.00,,,0.00,Wunderground v.1.12,2013-06-21 20:45:00,
2013-06-21 16:50:00,77.6,56.4,30.24,NNE,31,0.0,0.0,48,0.00,,,0.00,Wunderground v.1.12,2013-06-21 20:50:00,
2013-06-21 16:55:00,77.6,58.0,30.24,NE,50,0.0,1.0,51,0.00,,,0.00,Wunderground v.1.12,2013-06-21 20:55:00,
2013-06-21 17:00:00,77.4,58.9,30.24,NE,47,0.0,0.0,53,0.00,,,0.00,Wunderground v.1.12,2013-06-21 21:00:00,
2013-06-21 17:04:00,77.4,57.9,30.24,SSE,151,0.0,0.0,51,0.00,,,0.00,Wunderground v.1.12,2013-06-21 21:04:00,
2013-06-21 17:09:00,77.2,56.6,30.24,NE,40,0.0,4.0,49,0.00,,,0.00,Wunderground v.1.12,2013-06-21 21:09:00,
2013-06-21 17:14:00,77.2,57.7,30.23,North,9,0.0,0.0,51,0.00,,,0.00,Wunderground v.1.12,2013-06-21 21:14:00,
2013-06-21 17:19:00,77.0,57.5,30.23,NE,49,0.0,6.0,51,0.00,,,0.00,Wunderground v.1.12,2013-06-21 21:19:00,
2013-06-21 17:24:00,77.0,58.0,30.23,NE,48,0.0,0.0,52,0.00,,,0.00,Wunderground v.1.12,2013-06-21 21:24:00,
2013-06-21 17:29:00,77.0,57.5,30.23,West,261,0.0,1.0,51,0.00,,,0.00,Wunderground v.1.12,2013-06-21 21:29:00,
2013-06-21 17:34:00,77.0,58.0,30.23,NNE,24,0.0,3.0,52,0.00,,,0.00,Wunderground v.1.12,2013-06-21 21:34:00,
2013-06-21 17:39:00,76.8,57.3,30.23,NW,313,2.0,2.0,51,0.00,,,0.00,Wunderground v.1.12,2013-06-21 21:39:00,
2013-06-21 17:45:00,76.8,57.3,30.23,NNW,345,0.0,0.0,51,0.00,,,0.00,Wunderground v.1.12,2013-06-21 21:45:00,
2013-06-21 17:50:00,76.8,56.8,30.23,NNE,13,0.0,2.0,50,0.00,,,0.00,Wunderground v.1.12,2013-06-21 21:50:00,
2013-06-21 17:55:00,76.8,58.9,30.23,NNE,13,0.0,0.0,54,0.00,,,0.00,Wunderground v.1.12,2013-06-21 21:55:00,
2013-06-21 18:00:00,76.5,57.6,30.23,North,5,0.0,0.0,52,0.00,,,0.00,Wunderground v.1.12,2013-06-21 22:00:00,
2013-06-21 18:05:00,76.5,59.1,30.23,North,5,0.0,0.0,55,0.00,,,0.00,Wunderground v.1.12,2013-06-21 22:05:00,
2013-06-21 18:11:00,76.3,55.7,30.23,ENE,58,0.0,0.0,49,0.00,,,0.00,Wunderground v.1.12,2013-06-21 22:11:00,
2013-06-21 18:16:00,76.3,57.4,30.23,NNW,333,0.0,0.0,52,0.00,,,0.00,Wunderground v.1.12,2013-06-21 22:16:00,
2013-06-21 18:21:00,76.1,58.2,30.23,NNW,333,0.0,0.0,54,0.00,,,0.00,Wunderground v.1.12,2013-06-21 22:21:00,
2013-06-21 18:26:00,76.0,58.2,30.23,NNW,333,0.0,0.0,54,0.00,,,0.00,Wunderground v.1.12,2013-06-21 22:26:00,
2013-06-21 18:31:00,76.0,57.1,30.23,NW,318,2.0,3.0,52,0.00,,,0.00,Wunderground v.1.12,2013-06-21 22:31:00,
2013-06-21 18:36:00,75.8,58.5,30.23,North,355,0.0,0.0,55,0.00,,,0.00,Wunderground v.1.12,2013-06-21 22:36:00,
2013-06-21 18:41:00,75.8,58.0,30.23,North,360,0.0,0.0,54,0.00,,,0.00,Wunderground v.1.12,2013-06-21 22:41:00,
2013-06-21 18:46:00,75.6,57.3,30.23,ESE,105,0.0,0.0,53,0.00,,,0.00,Wunderground v.1.12,2013-06-21 22:46:00,
2013-06-21 18:51:00,75.6,58.3,30.23,ESE,105,0.0,0.0,55,0.00,,,0.00,Wunderground v.1.12,2013-06-21 22:51:00,
2013-06-21 18:57:00,75.4,57.1,30.23,NNW,344,0.0,1.0,53,0.00,,,0.00,Wunderground v.1.12,2013-06-21 22:57:00,
2013-06-21 19:02:00,75.3,58.0,30.23,ENE,78,0.0,0.0,55,0.00,,,0.00,Wunderground v.1.12,2013-06-21 23:02:00,
2013-06-21 19:07:00,75.1,58.3,30.23,NNW,341,0.0,2.0,56,0.00,,,0.00,Wunderground v.1.12,2013-06-21 23:07:00,
2013-06-21 19:12:00,74.9,58.1,30.23,NNW,341,0.0,0.0,56,0.00,,,0.00,Wunderground v.1.12,2013-06-21 23:12:00,
2013-06-21 19:17:00,74.7,58.5,30.24,NNW,331,0.0,0.0,57,0.00,,,0.00,Wunderground v.1.12,2013-06-21 23:17:00,
2013-06-21 19:22:00,74.6,57.9,30.24,NNW,331,0.0,0.0,56,0.00,,,0.00,Wunderground v.1.12,2013-06-21 23:22:00,
2013-06-21 19:27:00,74.2,58.0,30.24,NNW,331,0.0,0.0,57,0.00,,,0.00,Wunderground v.1.12,2013-06-21 23:27:00,
2013-06-21 19:32:00,74.0,58.3,30.23,NNW,331,0.0,0.0,58,0.00,,,0.00,Wunderground v.1.12,2013-06-21 23:32:00,
2013-06-21 19:37:00,73.9,58.2,30.23,NNW,331,0.0,0.0,58,0.00,,,0.00,Wunderground v.1.12,2013-06-21 23:37:00,
2013-06-21 19:42:00,73.7,56.5,30.23,NNW,342,0.0,0.0,55,0.00,,,0.00,Wunderground v.1.12,2013-06-21 23:42:00,
2013-06-21 19:47:00,73.5,57.3,30.23,NNW,342,0.0,0.0,57,0.00,,,0.00,Wunderground v.1.12,2013-06-21 23:47:00,
2013-06-21 19:52:00,73.3,58.1,30.23,NNW,342,0.0,0.0,59,0.00,,,0.00,Wunderground v.1.12,2013-06-21 23:52:00,
2013-06-21 19:57:00,73.2,58.0,30.23,NNW,342,0.0,0.0,59,0.00,,,0.00,Wunderground v.1.12,2013-06-21 23:57:00,
2013-06-21 20:02:00,73.0,58.3,30.23,NNW,342,0.0,0.0,60,0.00,,,0.00,Wunderground v.1.12,2013-06-22 00:02:00,
2013-06-21 20:07:00,72.7,57.1,30.23,NNW,342,0.0,0.0,58,0.00,,,0.00,Wunderground v.1.12,2013-06-22 00:07:00,
2013-06-21 20:12:00,72.3,57.2,30.23,NNW,342,0.0,0.0,59,0.00,,,0.00,Wunderground v.1.12,2013-06-22 00:12:00,
2013-06-21 20:18:00,72.1,56.5,30.23,NNW,342,0.0,0.0,58,0.00,,,0.00,Wunderground v.1.12,2013-06-22 00:18:00,
2013-06-21 20:23:00,71.8,57.2,30.23,NNW,342,0.0,0.0,60,0.00,,,0.00,Wunderground v.1.12,2013-06-22 00:23:00,
2013-06-21 20:28:00,71.6,57.0,30.22,NNW,342,0.0,0.0,60,0.00,,,0.00,Wunderground v.1.12,2013-06-22 00:28:00,
2013-06-21 20:34:00,71.3,58.1,30.22,NNW,342,0.0,0.0,63,0.00,,,0.00,Wunderground v.1.12,2013-06-22 00:34:00,
2013-06-21 20:39:00,70.9,56.8,30.22,NNW,342,0.0,0.0,61,0.00,,,0.00,Wunderground v.1.12,2013-06-22 00:39:00,
2013-06-21 20:44:00,70.6,56.9,30.22,NNW,342,0.0,0.0,62,0.00,,,0.00,Wunderground v.1.12,2013-06-22 00:44:00,
2013-06-21 20:49:00,70.4,58.1,30.22,NNW,342,0.0,0.0,65,0.00,,,0.00,Wunderground v.1.12,2013-06-22 00:49:00,
2013-06-21 20:54:00,70.1,57.8,30.22,NNW,342,0.0,0.0,65,0.00,,,0.00,Wunderground v.1.12,2013-06-22 00:54:00,
2013-06-21 20:59:00,69.9,57.6,30.22,NNW,342,0.0,0.0,65,0.00,,,0.00,Wunderground v.1.12,2013-06-22 00:59:00,
2013-06-21 21:04:00,69.6,56.9,30.22,NNW,342,0.0,0.0,64,0.00,,,0.00,Wunderground v.1.12,2013-06-22 01:04:00,
2013-06-21 21:09:00,69.4,57.1,30.22,NNW,342,0.0,0.0,65,0.00,,,0.00,Wunderground v.1.12,2013-06-22 01:09:00,
2013-06-21 21:14:00,69.3,57.5,30.22,NNW,342,0.0,0.0,66,0.00,,,0.00,Wunderground v.1.12,2013-06-22 01:14:00,
2013-06-21 21:19:00,68.9,56.6,30.22,NNW,342,0.0,0.0,65,0.00,,,0.00,Wunderground v.1.12,2013-06-22 01:19:00,
2013-06-21 21:24:00,68.8,57.0,30.22,NNW,342,0.0,0.0,66,0.00,,,0.00,Wunderground v.1.12,2013-06-22 01:24:00,
2013-06-21 21:29:00,68.6,57.2,30.23,NNW,342,0.0,0.0,67,0.00,,,0.00,Wunderground v.1.12,2013-06-22 01:29:00,
2013-06-21 21:34:00,68.4,56.2,30.23,NNW,342,0.0,0.0,65,0.00,,,0.00,Wunderground v.1.12,2013-06-22 01:34:00,
2013-06-21 21:40:00,68.3,56.9,30.23,NNW,342,0.0,0.0,67,0.00,,,0.00,Wunderground v.1.12,2013-06-22 01:40:00,
2013-06-21 21:45:00,68.1,56.7,30.23,NNW,342,0.0,0.0,67,0.00,,,0.00,Wunderground v.1.12,2013-06-22 01:45:00,
2013-06-21 21:50:00,67.9,55.7,30.23,NNW,342,0.0,0.0,65,0.00,,,0.00,Wunderground v.1.12,2013-06-22 01:50:00,
2013-06-21 21:55:00,67.9,56.5,30.23,NNW,342,0.0,0.0,67,0.00,,,0.00,Wunderground v.1.12,2013-06-22 01:55:00,
2013-06-21 22:00:00,67.8,56.9,30.23,NNW,342,0.0,0.0,68,0.00,,,0.00,Wunderground v.1.12,2013-06-22 02:00:00,
2013-06-21 22:05:00,67.6,56.2,30.23,NNW,342,0.0,0.0,67,0.00,,,0.00,Wunderground v.1.12,2013-06-22 02:05:00,
2013-06-21 22:10:00,67.4,56.5,30.23,NNW,342,0.0,0.0,68,0.00,,,0.00,Wunderground v.1.12,2013-06-22 02:10:00,
2013-06-21 22:15:00,67.1,56.6,30.24,NNW,342,0.0,0.0,69,0.00,,,0.00,Wunderground v.1.12,2013-06-22 02:15:00,
2013-06-21 22:20:00,66.9,56.0,30.24,NNW,342,0.0,0.0,68,0.00,,,0.00,Wunderground v.1.12,2013-06-22 02:20:00,
2013-06-21 22:25:00,66.9,54.7,30.24,NNW,342,0.0,0.0,65,0.00,,,0.00,Wunderground v.1.12,2013-06-22 02:25:00,
2013-06-21 22:31:00,67.1,54.9,30.24,NNW,342,0.0,0.0,65,0.00,,,0.00,Wunderground v.1.12,2013-06-22 02:31:00,
2013-06-21 22:36:00,67.4,57.3,30.24,NNW,342,0.0,0.0,70,0.00,,,0.00,Wunderground v.1.12,2013-06-22 02:36:00,
2013-06-21 22:41:00,67.1,56.6,30.24,NNW,342,0.0,0.0,69,0.00,,,0.00,Wunderground v.1.12,2013-06-22 02:41:00,
2013-06-21 22:46:00,66.9,55.6,30.23,NNW,342,0.0,0.0,67,0.00,,,0.00,Wunderground v.1.12,2013-06-22 02:46:00,
2013-06-21 22:51:00,66.8,55.5,30.23,NNW,342,0.0,0.0,67,0.00,,,0.00,Wunderground v.1.12,2013-06-22 02:51:00,
2013-06-21 22:56:00,66.6,56.1,30.23,NNW,342,0.0,0.0,69,0.00,,,0.00,Wunderground v.1.12,2013-06-22 02:56:00,
2013-06-21 23:01:00,66.4,55.1,30.23,NNW,342,0.0,0.0,67,0.00,,,0.00,Wunderground v.1.12,2013-06-22 03:01:00,
2013-06-21 23:06:00,66.4,55.1,30.23,NNW,342,0.0,0.0,67,0.00,,,0.00,Wunderground v.1.12,2013-06-22 03:06:00,
2013-06-21 23:11:00,66.4,55.5,30.23,NE,34,0.0,0.0,68,0.00,,,0.00,Wunderground v.1.12,2013-06-22 03:11:00,
2013-06-21 23:16:00,66.3,55.4,30.23,NE,34,0.0,0.0,68,0.00,,,0.00,Wunderground v.1.12,2013-06-22 03:16:00,
2013-06-21 23:21:00,66.1,54.8,30.23,NNW,342,0.0,0.0,67,0.00,,,0.00,Wunderground v.1.12,2013-06-22 03:21:00,
2013-06-21 23:27:00,66.1,54.4,30.23,North,5,0.0,0.0,66,0.00,,,0.00,Wunderground v.1.12,2013-06-22 03:27:00,
2013-06-21 23:32:00,66.3,55.0,30.23,North,360,0.0,0.0,67,0.00,,,0.00,Wunderground v.1.12,2013-06-22 03:32:00,
2013-06-21 23:37:00,66.1,54.4,30.23,NNW,331,0.0,0.0,66,0.00,,,0.00,Wunderground v.1.12,2013-06-22 03:37:00,
2013-06-21 23:42:00,66.1,54.0,30.23,NNW,331,0.0,0.0,65,0.00,,,0.00,Wunderground v.1.12,2013-06-22 03:42:00,
2013-06-21 23:47:00,66.1,54.0,30.23,North,9,0.0,0.0,65,0.00,,,0.00,Wunderground v.1.12,2013-06-22 03:47:00,
2013-06-21 23:52:00,66.1,54.4,30.23,North,9,0.0,0.0,66,0.00,,,0.00,Wunderground v.1.12,2013-06-22 03:52:00,
2013-06-21 23:57:00,66.0,54.7,30.23,ENE,59,0.0,0.0,67,0.00,,,0.00,Wunderground v.1.12,2013-06-22 03:57:00,